AirNav   Everest Fuels
 
 719 users online  

33NE Orr Ranch Airport
Hay Springs, Nebraska, USA

GOING TO HAY SPRINGS?


FAA INFORMATION EFFECTIVE 03 NOVEMBER 2022

Location

FAA Identifier: 33NE
Lat/Long: 42-23-09.8840N 102-34-31.7160W
42-23.164733N 102-34.528600W
42.3860789,-102.5754767
(estimated)
Elevation: 3880 ft. / 1183 m (estimated)
Variation: 10E (1985)
From city: 18 miles SE of HAY SPRINGS, NE
Time zone: UTC -7 (UTC -6 during Daylight Saving Time)
Zip code: 69347

Airport Operations

Airport use: Private use. Permission required prior to landing
Activation date: 04/1981
Control tower: no
ARTCC: DENVER CENTER
FSS: COLUMBUS FLIGHT SERVICE STATION
Attendance: UNATNDD
Wind indicator: no
Segmented circle: no

Nearby radio navigation aids

VOR radial/distance  VOR name  Freq  Var
AIAr016/22.3ALLIANCE VOR/DME111.8011E
TSTr095/34.2TOADSTOOL VOR/DME113.4013E

 
NDB name  Hdg/Dist  Freq  Var  ID
GORDON206/30.441409EGRN --. .-. -.
WHITNEY132/35.127507EHIN .... .. -.

Airport Services

Runway Information

Runway 10/28

Dimensions: 3585 x 30 ft. / 1093 x 9 m
Surface: turf
RUNWAY 10  RUNWAY 28
Traffic pattern: leftleft

Runway 13/31

Dimensions: 1450 x 30 ft. / 442 x 9 m
Surface: turf
RUNWAY 13  RUNWAY 31
Traffic pattern: leftleft

Airport Ownership and Management from official FAA records

Ownership: Privately-owned
Owner: MONTE L ORR
3600 390TH TRAIL
HAY SPRINGS, NE 69347
Phone 308-232-4527
Manager: MONTE L ORR
3600 390TH TRAIL
HAY SPRINGS, NE 69347
Phone 308-232-4527

Airport Operational Statistics

Aircraft based on the field: 3
Single engine airplanes: 3
    

Additional Remarks

OWNER DESIRES ARPT NOT BE CHARTED.
FOR CD CTC DENVER ARTCC AT 303-651-4257.

Instrument Procedures

There are no published instrument procedures at 33NE.

Some nearby airports with instrument procedures:

9V5 - Modisett Airport (22 nm N)
KAIA - Alliance Municipal Airport (22 nm SW)
KGRN - Gordon Municipal Airport (31 nm NE)
KCDR - Chadron Municipal Airport (36 nm NW)
KIEN - Pine Ridge Airport (38 nm N)
 
Loc | Ops | Rwys | IFR | FBO | Links
Com | Nav | Svcs | Stats | Notes
Area around 33NE (Orr Ranch Airport)
 
Road maps at: MapQuest Bing Google
 
Aerial photo
No photo
 
Sectional chart

 
Airport distance calculator
Flying to Orr Ranch Airport? Find the distance to fly.

From to 33NE

Sunrise and sunset
Times for 27-Nov-2022
 Local
(UTC-7)
 Zulu
(UTC)
Morning civil twilight06:2613:26
Sunrise06:5713:57
Sunset16:1923:19
Evening civil twilight16:5023:50

Current date and time
Zulu (UTC)  27-Nov-2022 13:02:55
Local (UTC-7)  27-Nov-2022 06:02:55
 
METAR
KAIA 
22nm SW 
271253Z AUTO 26006KT 10SM CLR M12/M13 A2995 RMK AO2 SLP178 I1000 T11221128
KGRN 
31nm NE 
271255Z AUTO 29003KT 10SM CLR M10/M11 A2993 RMK AO2 T10981110
KCDR 
35nm NW 
271253Z AUTO 23006KT 10SM CLR M09/M11 A2995 RMK AO2 SLP183 T10891111
KIEN 
39nm N 
271252Z AUTO 08005KT 10SM SCT001 M13/M15 A2994 RMK AO2 SLP179 I1000 T11331150
TAF
KAIA 
22nm SW 
271121Z 2712/2812 27009KT P6SM BKN100 FM271900 23013KT P6SM FEW250 FM272100 24015G25KT P6SM FEW200 FM280000 24013KT P6SM FEW200 FM280800 27015G25KT P6SM SCT200 WS020/27045KT
NOTAMs
Click for the latest NOTAMs
NOTAMs are issued by the DoD/FAA and will open in a separate window not controlled by AirNav.

 

 
 

Would you like to see your business listed on this page?

 If your business provides an interesting product or service to pilots, flight crews, aircraft, or users of the Orr Ranch Airport, you should consider listing it here.  To start the listing process, click on the button below
 
Add a business
 

Other Pages about Orr Ranch Airport

Update a link
 
Copyright © AirNav, LLC. All rights reserved. Privacy Policy  Contact